^^
Meteo Knjazevac Station Historical Data
Daily Summary for November 7, 2021 Units:  Metric    English   Both
Daily Weekly Monthly Yearly Custom
  High: Low: Average:
Temperature: 13.4 °C 5.8 °C 8.9 °C
Dew Point: 12.1 °C 5.7 °C 8.4 °C
Humidity: 99% 89% 97%
Wind Speed: 9.7km/h 0km/h 1.8km/h
Wind Gust: 20.9km/h - -
Wind- - SSW
Pressure: 1027.7 hPa 1019.5 hPa -
Precipitation: 0 mm    
Historical Graphs
 
 
Tabular Data for November 7, 2021
Time Temperature Dew Point Pressure Wind Wind Speed Wind Gust Humidity Rainfall Rate (Hourly) solar Conditions
00:00 7.9 °C 7.6 °C 1027.3 hPa Calm   4.8 km/h 98% 0 mm 0 W/m2
00:10 7.8 °C 7.2 °C 1027.7 hPa West 3.2 km/h 4.8 km/h 96% 0 mm 0 W/m2
00:20 7.7 °C 7.4 °C 1027.3 hPa WNW 3.2 km/h 6.4 km/h 98% 0 mm 0 W/m2
00:30 7.7 °C 7.4 °C 1027 hPa Calm   3.2 km/h 98% 0 mm 0 W/m2
00:40 7.6 °C 7.3 °C 1027 hPa Calm   3.2 km/h 98% 0 mm 0 W/m2
00:50 7.6 °C 7.3 °C 1027 hPa Calm   4.8 km/h 98% 0 mm 0 W/m2
01:00 7.5 °C 7.2 °C 1026.6 hPa Calm   3.2 km/h 98% 0 mm 0 W/m2
01:10 7.5 °C 7.2 °C 1027 hPa WNW 3.2 km/h 6.4 km/h 98% 0 mm 0 W/m2
01:20 7.4 °C 7.1 °C 1027 hPa West 3.2 km/h 4.8 km/h 98% 0 mm 0 W/m2
01:30 7.4 °C 7.1 °C 1026.6 hPa North 1.6 km/h 3.2 km/h 98% 0 mm 0 W/m2
01:40 7.4 °C 7.3 °C 1026.3 hPa East 3.2 km/h 8 km/h 99% 0 mm 0 W/m2
01:50 7.4 °C 7.3 °C 1026.6 hPa NNE 1.6 km/h 8 km/h 99% 0 mm 0 W/m2
02:00 7.5 °C 7.3 °C 1026.6 hPa NNW 1.6 km/h 4.8 km/h 99% 0 mm 0 W/m2
02:10 7.5 °C 7.3 °C 1026.6 hPa WNW 1.6 km/h 3.2 km/h 99% 0 mm 0 W/m2
02:20 7.4 °C 7.3 °C 1026.6 hPa WNW 3.2 km/h 4.8 km/h 99% 0 mm 0 W/m2
02:30 7.4 °C 7.3 °C 1026.6 hPa NW 1.6 km/h 8 km/h 99% 0 mm 0 W/m2
02:40 7.5 °C 7.3 °C 1026.6 hPa NNE 3.2 km/h 4.8 km/h 99% 0 mm 0 W/m2
02:50 7.5 °C 7.3 °C 1026.3 hPa NE 3.2 km/h 8 km/h 99% 0 mm 0 W/m2
03:00 7.5 °C 7.3 °C 1026.6 hPa Calm   8 km/h 99% 0 mm 0 W/m2
03:10 7.5 °C 7.3 °C 1026.3 hPa NNE 3.2 km/h 4.8 km/h 99% 0 mm 0 W/m2
03:20 7.5 °C 7.3 °C 1026.3 hPa NNE 3.2 km/h 4.8 km/h 99% 0 mm 0 W/m2
03:30 7.5 °C 7.3 °C 1026.6 hPa NNE 1.6 km/h 3.2 km/h 99% 0 mm 0 W/m2
03:40 7.4 °C 7.3 °C 1026.6 hPa Calm   3.2 km/h 99% 0 mm 0 W/m2
03:50 7.4 °C 7.3 °C 1026.6 hPa NNW 1.6 km/h 3.2 km/h 99% 0 mm 0 W/m2
04:00 7.4 °C 7.3 °C 1026.6 hPa NW 1.6 km/h 4.8 km/h 99% 0 mm 0 W/m2
04:10 7.4 °C 7.3 °C 1026.6 hPa Calm   3.2 km/h 99% 0 mm 0 W/m2
04:20 7.4 °C 7.3 °C 1026.6 hPa Calm   3.2 km/h 99% 0 mm 0 W/m2
04:30 7.3 °C 7.2 °C 1026.6 hPa WSW 1.6 km/h 3.2 km/h 99% 0 mm 0 W/m2
04:40 7.3 °C 7.2 °C 1026.3 hPa SW 1.6 km/h 4.8 km/h 99% 0 mm 0 W/m2
04:50 7.3 °C 7.2 °C 1026.3 hPa NW 1.6 km/h 3.2 km/h 99% 0 mm 0 W/m2
05:00 7.3 °C 7.2 °C 1026 hPa NNE 3.2 km/h 4.8 km/h 99% 0 mm 0 W/m2
05:10 7.3 °C 7.2 °C 1026 hPa ENE 1.6 km/h 4.8 km/h 99% 0 mm 0 W/m2
05:20 7.4 °C 7.3 °C 1026 hPa NNW 1.6 km/h 3.2 km/h 99% 0 mm 0 W/m2
05:30 7.4 °C 7.3 °C 1026 hPa North 3.2 km/h 4.8 km/h 99% 0 mm 0 W/m2
05:40 7.5 °C 7.3 °C 1025.6 hPa North 1.6 km/h 6.4 km/h 99% 0 mm 0 W/m2
05:50 7.6 °C 7.4 °C 1025.6 hPa Calm   3.2 km/h 99% 0 mm 0 W/m2
06:00 7.7 °C 7.6 °C 1025.6 hPa Calm   6.4 km/h 99% 0 mm 0 W/m2
06:10 7.6 °C 7.4 °C 1025.6 hPa Calm   4.8 km/h 99% 0 mm 0 W/m2
06:20 7.6 °C 7.4 °C 1026 hPa North 1.6 km/h 4.8 km/h 99% 0 mm 1 W/m2
06:30 7.7 °C 7.6 °C 1026 hPa Calm   8 km/h 99% 0 mm 5 W/m2
06:40 7.7 °C 7.6 °C 1026 hPa NNE 3.2 km/h 6.4 km/h 99% 0 mm 10 W/m2
06:50 7.7 °C 7.6 °C 1026 hPa Calm   3.2 km/h 99% 0 mm 22 W/m2
07:00 7.7 °C 7.6 °C 1026 hPa North 1.6 km/h 4.8 km/h 99% 0 mm 24 W/m2
07:10 7.7 °C 7.6 °C 1026 hPa Calm   3.2 km/h 99% 0 mm 20 W/m2
07:20 7.7 °C 7.6 °C 1026 hPa Calm   3.2 km/h 99% 0 mm 24 W/m2
07:30 7.8 °C 7.7 °C 1026 hPa Calm   3.2 km/h 99% 0 mm 26 W/m2
07:40 7.9 °C 7.8 °C 1025.6 hPa East 3.2 km/h 4.8 km/h 99% 0 mm 37 W/m2
07:50 7.9 °C 7.8 °C 1026 hPa Calm   3.2 km/h 99% 0 mm 39 W/m2
08:00 8.1 °C 7.9 °C 1026 hPa WNW 1.6 km/h 3.2 km/h 99% 0 mm 47 W/m2
08:10 8.2 °C 8.1 °C 1026 hPa Calm   6.4 km/h 99% 0 mm 49 W/m2
08:20 8.2 °C 8.1 °C 1026 hPa NNW 1.6 km/h 3.2 km/h 99% 0 mm 51 W/m2
08:30 8.4 °C 8.3 °C 1026 hPa NNE 3.2 km/h 6.4 km/h 99% 0 mm 74 W/m2
08:40 8.6 °C 8.4 °C 1025.6 hPa Calm   8 km/h 99% 0 mm 95 W/m2
08:50 8.7 °C 8.6 °C 1025.6 hPa Calm   6.4 km/h 99% 0 mm 95 W/m2
09:00 8.9 °C 8.8 °C 1025.6 hPa North 1.6 km/h 4.8 km/h 99% 0 mm 113 W/m2
09:10 9.1 °C 8.9 °C 1025.3 hPa NW 3.2 km/h 4.8 km/h 99% 0 mm 151 W/m2
09:20 9.4 °C 9.3 °C 1025.3 hPa West 1.6 km/h 3.2 km/h 99% 0 mm 144 W/m2
09:30 9.6 °C 9.3 °C 1025.3 hPa SSW 3.2 km/h 4.8 km/h 98% 0 mm 154 W/m2
09:40 9.8 °C 9.5 °C 1025.3 hPa NNE 3.2 km/h 4.8 km/h 98% 0 mm 146 W/m2
09:50 9.9 °C 9.6 °C 1025.3 hPa SSW 1.6 km/h 3.2 km/h 98% 0 mm 155 W/m2
10:00 10.1 °C 9.8 °C 1025.3 hPa South 3.2 km/h 4.8 km/h 98% 0 mm 179 W/m2
10:10 10.3 °C 9.7 °C 1024.9 hPa SW 1.6 km/h 4.8 km/h 96% 0 mm 152 W/m2
10:20 10.4 °C 9.8 °C 1024.9 hPa SSW 1.6 km/h 4.8 km/h 96% 0 mm 135 W/m2
10:30 10.6 °C 10 °C 1024.9 hPa WSW 1.6 km/h 3.2 km/h 96% 0 mm 117 W/m2
10:40 10.7 °C 9.9 °C 1024.9 hPa WSW 3.2 km/h 6.4 km/h 95% 0 mm 117 W/m2
10:50 10.8 °C 10.1 °C 1024.9 hPa SW 4.8 km/h 9.7 km/h 95% 0 mm 114 W/m2
11:00 11 °C 10.2 °C 1024.3 hPa WSW 3.2 km/h 4.8 km/h 95% 0 mm 197 W/m2
11:10 11.3 °C 10.6 °C 1024.3 hPa South 3.2 km/h 6.4 km/h 95% 0 mm 185 W/m2
11:20 11.6 °C 10.8 °C 1023.9 hPa South 1.6 km/h 8 km/h 95% 0 mm 156 W/m2
11:30 11.8 °C 11 °C 1023.9 hPa ESE 9.7 km/h 12.9 km/h 95% 0 mm 186 W/m2
11:40 12.1 °C 11.5 °C 1023.6 hPa Calm   12.9 km/h 96% 0 mm 259 W/m2
11:50 12.4 °C 11.7 °C 1023.6 hPa North 4.8 km/h 14.5 km/h 95% 0 mm 211 W/m2
12:00 12.7 °C 11.8 °C 1023.6 hPa NNE 8 km/h 14.5 km/h 94% 0 mm 284 W/m2
12:10 12.9 °C 11.9 °C 1023.6 hPa North 4.8 km/h 14.5 km/h 94% 0 mm 196 W/m2
12:20 13 °C 12.1 °C 1023.9 hPa NNE 3.2 km/h 14.5 km/h 94% 0 mm 153 W/m2
12:30 13.1 °C 12.1 °C 1023.9 hPa NNE 4.8 km/h 16.1 km/h 93% 0 mm 233 W/m2
12:40 13.2 °C 12.1 °C 1023.6 hPa North 1.6 km/h 20.9 km/h 93% 0 mm 120 W/m2
12:50 13 °C 11.6 °C 1023.2 hPa North 4.8 km/h 16.1 km/h 91% 0 mm 164 W/m2
13:40 12.8 °C 11.4 °C 1022.9 hPa North 8 km/h 14.5 km/h 91% 0 mm 176 W/m2
13:50 13 °C 11.6 °C 1022.6 hPa North 4.8 km/h 9.7 km/h 91% 0 mm 183 W/m2
14:00 13.1 °C 11.7 °C 1022.9 hPa North 4.8 km/h 9.7 km/h 91% 0 mm 169 W/m2
14:10 13.2 °C 11.8 °C 1022.6 hPa NNE 3.2 km/h 9.7 km/h 91% 0 mm 185 W/m2
14:20 13.4 °C 11.8 °C 1022.6 hPa North 8 km/h 12.9 km/h 90% 0 mm 174 W/m2
14:30 13.4 °C 11.8 °C 1022.6 hPa NNE 4.8 km/h 9.7 km/h 90% 0 mm 76 W/m2
14:40 13.3 °C 11.5 °C 1022.6 hPa North 3.2 km/h 11.3 km/h 89% 0 mm 134 W/m2
14:50 13.3 °C 11.5 °C 1022.6 hPa North 3.2 km/h 11.3 km/h 89% 0 mm 85 W/m2
15:00 13.2 °C 11.4 °C 1022.6 hPa North 8 km/h 12.9 km/h 89% 0 mm 49 W/m2
15:10 13 °C 11.2 °C 1022.6 hPa North 4.8 km/h 8 km/h 89% 0 mm 44 W/m2
15:20 12.8 °C 11.1 °C 1022.2 hPa North 1.6 km/h 9.7 km/h 89% 0 mm 40 W/m2
15:30 12.7 °C 10.9 °C 1022.2 hPa North 3.2 km/h 9.7 km/h 89% 0 mm 42 W/m2
15:40 12.5 °C 10.9 °C 1022.2 hPa NNW 1.6 km/h 8 km/h 90% 0 mm 28 W/m2
15:50 12.4 °C 10.8 °C 1022.2 hPa Calm   3.2 km/h 90% 0 mm 19 W/m2
16:00 12.3 °C 10.7 °C 1022.2 hPa Calm   3.2 km/h 90% 0 mm 11 W/m2
16:10 12 °C 10.4 °C 1022.2 hPa Calm   3.2 km/h 90% 0 mm 6 W/m2
16:20 11.7 °C 10.1 °C 1021.9 hPa Calm   3.2 km/h 90% 0 mm 0 W/m2
16:30 11.3 °C 9.9 °C 1021.9 hPa Calm   1.6 km/h 91% 0 mm 0 W/m2
16:40 11.1 °C 9.8 °C 1021.9 hPa South 1.6 km/h 1.6 km/h 92% 0 mm 0 W/m2
16:50 10.9 °C 9.8 °C 1021.9 hPa Calm   3.2 km/h 93% 0 mm 0 W/m2
17:00 10.7 °C 9.6 °C 1021.9 hPa SW 1.6 km/h 3.2 km/h 93% 0 mm 0 W/m2
17:10 10.4 °C 9.5 °C 1021.9 hPa Calm   3.2 km/h 94% 0 mm 0 W/m2
17:20 10.2 °C 9.3 °C 1021.9 hPa WNW 1.6 km/h 4.8 km/h 94% 0 mm 0 W/m2
17:30 10.1 °C 9.3 °C 1021.9 hPa Calm   3.2 km/h 95% 0 mm 0 W/m2
17:40 9.8 °C 9.1 °C 1021.9 hPa Calm   3.2 km/h 95% 0 mm 0 W/m2
17:50 9.7 °C 8.9 °C 1021.9 hPa Calm   3.2 km/h 95% 0 mm 0 W/m2
18:00 9.5 °C 8.7 °C 1022.2 hPa Calm   3.2 km/h 95% 0 mm 0 W/m2
18:10 9.3 °C 8.7 °C 1021.9 hPa Calm   3.2 km/h 96% 0 mm 0 W/m2
18:20 9.1 °C 8.5 °C 1021.9 hPa WSW 1.6 km/h 4.8 km/h 96% 0 mm 0 W/m2
18:30 8.9 °C 8.3 °C 1021.6 hPa WNW 1.6 km/h 3.2 km/h 96% 0 mm 0 W/m2
18:40 8.8 °C 8.2 °C 1021.6 hPa SSW 1.6 km/h 4.8 km/h 96% 0 mm 0 W/m2
18:50 8.6 °C 8.3 °C 1021.9 hPa WSW 1.6 km/h 4.8 km/h 98% 0 mm 0 W/m2
19:00 8.4 °C 8.2 °C 1021.6 hPa WNW 3.2 km/h 6.4 km/h 98% 0 mm 0 W/m2
19:10 8.4 °C 8.1 °C 1021.6 hPa NNW 1.6 km/h 4.8 km/h 98% 0 mm 0 W/m2
19:20 8.2 °C 7.9 °C 1021.6 hPa Calm   3.2 km/h 98% 0 mm 0 W/m2
19:30 8 °C 7.7 °C 1021.6 hPa Calm   3.2 km/h 98% 0 mm 0 W/m2
19:40 7.8 °C 7.6 °C 1021.6 hPa Calm   1.6 km/h 98% 0 mm 0 W/m2
19:50 7.7 °C 7.4 °C 1021.6 hPa Calm     98% 0 mm 0 W/m2
20:00 7.6 °C 7.3 °C 1021.6 hPa Calm   3.2 km/h 98% 0 mm 0 W/m2
20:10 7.4 °C 7.1 °C 1021.2 hPa NW 1.6 km/h 3.2 km/h 98% 0 mm 0 W/m2
20:20 7.3 °C 7 °C 1021.2 hPa Calm   3.2 km/h 98% 0 mm 0 W/m2
20:30 7.3 °C 7.1 °C 1021.2 hPa NNW 1.6 km/h 3.2 km/h 99% 0 mm 0 W/m2
20:40 7.2 °C 7.1 °C 1021.2 hPa Calm   3.2 km/h 99% 0 mm 0 W/m2
20:50 7 °C 6.8 °C 1021.2 hPa Calm   1.6 km/h 99% 0 mm 0 W/m2
21:00 6.9 °C 6.8 °C 1020.9 hPa Calm   3.2 km/h 99% 0 mm 0 W/m2
21:10 6.8 °C 6.7 °C 1020.9 hPa NW 1.6 km/h 4.8 km/h 99% 0 mm 0 W/m2
21:20 6.8 °C 6.7 °C 1020.5 hPa West 1.6 km/h 4.8 km/h 99% 0 mm 0 W/m2
21:30 6.8 °C 6.7 °C 1020.5 hPa Calm   3.2 km/h 99% 0 mm 0 W/m2
21:40 6.7 °C 6.5 °C 1020.5 hPa NW 1.6 km/h 3.2 km/h 99% 0 mm 0 W/m2
21:50 6.5 °C 6.3 °C 1020.5 hPa Calm   4.8 km/h 99% 0 mm 0 W/m2
22:00 6.4 °C 6.3 °C 1020.5 hPa Calm   1.6 km/h 99% 0 mm 0 W/m2
22:10 6.3 °C 6.2 °C 1020.2 hPa Calm   3.2 km/h 99% 0 mm 0 W/m2
22:20 6.2 °C 6.1 °C 1020.2 hPa Calm   3.2 km/h 99% 0 mm 0 W/m2
22:40 6.3 °C 6.2 °C 1019.9 hPa Calm     99% 0 mm 0 W/m2
22:50 6.2 °C 6.1 °C 1019.9 hPa WNW 1.6 km/h 3.2 km/h 99% 0 mm 0 W/m2
23:00 6.2 °C 6.1 °C 1019.9 hPa NNW 1.6 km/h 3.2 km/h 99% 0 mm 0 W/m2
23:10 6.2 °C 6.1 °C 1019.9 hPa NNW 3.2 km/h 4.8 km/h 99% 0 mm 0 W/m2
23:20 6.2 °C 6.1 °C 1019.9 hPa Calm   4.8 km/h 99% 0 mm 0 W/m2
23:30 6.2 °C 6.1 °C 1019.5 hPa Calm     99% 0 mm 0 W/m2
23:40 6 °C 5.8 °C 1019.5 hPa Calm   1.6 km/h 99% 0 mm 0 W/m2
23:50 5.8 °C 5.7 °C 1019.5 hPa NNE 4.8 km/h 9.7 km/h 99% 0 mm 0 W/m2
Knjazevac, Serbia
Compliments of Weather Underground - 2 mb